sensor_id;sensor_type;location;lat;lon;timestamp;pressure;altitude;pressure_sealevel;temperature;humidity
15050;BME280;7622;42.724;23.250;2023-02-26T00:00:59;93504.16;;;13.71;68.85
15050;BME280;7622;42.724;23.250;2023-02-26T00:03:25;93494.75;;;13.76;68.11
15050;BME280;7622;42.724;23.250;2023-02-26T00:05:58;93492.00;;;13.85;66.56
15050;BME280;7622;42.724;23.250;2023-02-26T00:08:25;93462.84;;;13.74;66.93
15050;BME280;7622;42.724;23.250;2023-02-26T00:10:52;93484.13;;;13.78;66.60
15050;BME280;7622;42.724;23.250;2023-02-26T00:13:19;93483.38;;;13.84;66.49
15050;BME280;7622;42.724;23.250;2023-02-26T00:15:47;93482.16;;;13.80;66.03
15050;BME280;7622;42.724;23.250;2023-02-26T00:18:15;93493.00;;;13.84;66.49
15050;BME280;7622;42.724;23.250;2023-02-26T00:20:43;93479.91;;;13.77;67.43
15050;BME280;7622;42.724;23.250;2023-02-26T00:23:12;93467.44;;;13.72;67.77
15050;BME280;7622;42.724;23.250;2023-02-26T00:25:40;93483.72;;;13.74;67.26
15050;BME280;7622;42.724;23.250;2023-02-26T00:28:07;93474.47;;;13.72;67.85
15050;BME280;7622;42.724;23.250;2023-02-26T00:30:35;93471.63;;;13.67;67.09
15050;BME280;7622;42.724;23.250;2023-02-26T00:33:03;93454.56;;;13.71;65.95
15050;BME280;7622;42.724;23.250;2023-02-26T00:35:30;93457.19;;;13.71;65.42
15050;BME280;7622;42.724;23.250;2023-02-26T00:38:00;93464.84;;;13.72;65.17
15050;BME280;7622;42.724;23.250;2023-02-26T00:40:35;93399.59;;;13.38;65.30
15050;BME280;7622;42.724;23.250;2023-02-26T00:43:04;93454.75;;;13.69;64.96
15050;BME280;7622;42.724;23.250;2023-02-26T00:45:31;93457.66;;;13.81;65.31
15050;BME280;7622;42.724;23.250;2023-02-26T00:48:15;93456.41;;;13.77;65.35
15050;BME280;7622;42.724;23.250;2023-02-26T00:50:49;93456.16;;;13.65;65.10
15050;BME280;7622;42.724;23.250;2023-02-26T00:53:22;93465.97;;;13.63;64.61
15050;BME280;7622;42.724;23.250;2023-02-26T00:55:51;93460.81;;;13.76;64.51
15050;BME280;7622;42.724;23.250;2023-02-26T00:58:18;93470.00;;;13.66;64.67
15050;BME280;7622;42.724;23.250;2023-02-26T01:00:45;93454.75;;;13.69;63.95
15050;BME280;7622;42.724;23.250;2023-02-26T01:03:12;93455.25;;;13.79;62.45
15050;BME280;7622;42.724;23.250;2023-02-26T01:05:39;93459.25;;;13.75;61.94
15050;BME280;7622;42.724;23.250;2023-02-26T01:08:11;93462.88;;;13.81;61.81
15050;BME280;7622;42.724;23.250;2023-02-26T01:10:40;93455.38;;;13.71;62.07
15050;BME280;7622;42.724;23.250;2023-02-26T01:13:09;93464.69;;;13.80;62.11
15050;BME280;7622;42.724;23.250;2023-02-26T01:15:37;93461.22;;;13.73;61.89
15050;BME280;7622;42.724;23.250;2023-02-26T01:18:11;93448.56;;;13.70;61.53
15050;BME280;7622;42.724;23.250;2023-02-26T01:20:42;93429.06;;;13.66;62.01
15050;BME280;7622;42.724;23.250;2023-02-26T01:23:14;93439.34;;;13.74;61.73
15050;BME280;7622;42.724;23.250;2023-02-26T01:25:43;93443.81;;;13.80;61.78
15050;BME280;7622;42.724;23.250;2023-02-26T01:28:15;93436.97;;;13.79;61.46
15050;BME280;7622;42.724;23.250;2023-02-26T01:30:42;93434.31;;;13.73;61.49
15050;BME280;7622;42.724;23.250;2023-02-26T01:33:15;93415.44;;;13.71;61.13
15050;BME280;7622;42.724;23.250;2023-02-26T01:35:49;93413.81;;;13.70;60.82
15050;BME280;7622;42.724;23.250;2023-02-26T01:38:23;93392.13;;;13.69;60.69
15050;BME280;7622;42.724;23.250;2023-02-26T01:41:20;93402.56;;;13.69;60.30
15050;BME280;7622;42.724;23.250;2023-02-26T01:43:58;93417.06;;;13.72;59.89
15050;BME280;7622;42.724;23.250;2023-02-26T01:46:33;93398.59;;;13.73;59.17
15050;BME280;7622;42.724;23.250;2023-02-26T01:49:03;93385.75;;;13.78;58.76
15050;BME280;7622;42.724;23.250;2023-02-26T01:51:44;93401.44;;;13.78;58.66
15050;BME280;7622;42.724;23.250;2023-02-26T01:54:11;93390.81;;;13.87;58.60
15050;BME280;7622;42.724;23.250;2023-02-26T01:56:40;93384.16;;;13.77;58.06
15050;BME280;7622;42.724;23.250;2023-02-26T01:59:10;93386.97;;;13.76;57.86
15050;BME280;7622;42.724;23.250;2023-02-26T02:01:40;93395.41;;;13.78;57.84
15050;BME280;7622;42.724;23.250;2023-02-26T02:04:10;93383.75;;;13.74;58.03
15050;BME280;7622;42.724;23.250;2023-02-26T02:06:38;93377.72;;;13.73;58.05
15050;BME280;7622;42.724;23.250;2023-02-26T02:09:07;93368.06;;;13.67;58.08
15050;BME280;7622;42.724;23.250;2023-02-26T02:11:40;93378.88;;;13.64;58.39
15050;BME280;7622;42.724;23.250;2023-02-26T02:14:19;93393.31;;;13.60;57.86
15050;BME280;7622;42.724;23.250;2023-02-26T02:16:54;93372.44;;;13.60;57.63
15050;BME280;7622;42.724;23.250;2023-02-26T02:19:50;93375.69;;;13.69;57.62
15050;BME280;7622;42.724;23.250;2023-02-26T02:22:53;93368.25;;;13.66;57.35
15050;BME280;7622;42.724;23.250;2023-02-26T02:25:38;93370.22;;;13.57;57.43
15050;BME280;7622;42.724;23.250;2023-02-26T02:28:17;93350.13;;;13.51;57.27
15050;BME280;7622;42.724;23.250;2023-02-26T02:31:01;93359.41;;;13.60;57.60
15050;BME280;7622;42.724;23.250;2023-02-26T02:33:33;93304.03;;;13.24;56.95
15050;BME280;7622;42.724;23.250;2023-02-26T02:36:05;93363.66;;;13.68;56.94
15050;BME280;7622;42.724;23.250;2023-02-26T02:38:37;93388.09;;;13.60;57.00
15050;BME280;7622;42.724;23.250;2023-02-26T02:41:09;93374.44;;;13.58;56.77
15050;BME280;7622;42.724;23.250;2023-02-26T02:43:38;93385.34;;;13.68;56.61
15050;BME280;7622;42.724;23.250;2023-02-26T02:46:10;93410.19;;;13.64;56.50
15050;BME280;7622;42.724;23.250;2023-02-26T02:48:42;93379.09;;;13.69;56.72
15050;BME280;7622;42.724;23.250;2023-02-26T02:51:12;93380.88;;;13.62;56.81
15050;BME280;7622;42.724;23.250;2023-02-26T02:53:43;93388.13;;;13.67;56.50
15050;BME280;7622;42.724;23.250;2023-02-26T02:56:16;93395.69;;;13.55;56.50
15050;BME280;7622;42.724;23.250;2023-02-26T02:58:49;93363.31;;;13.43;56.44
15050;BME280;7622;42.724;23.250;2023-02-26T03:01:18;93402.16;;;13.66;55.78
15050;BME280;7622;42.724;23.250;2023-02-26T03:03:51;93410.97;;;13.58;55.82
15050;BME280;7622;42.724;23.250;2023-02-26T03:06:20;93404.13;;;13.57;56.43
15050;BME280;7622;42.724;23.250;2023-02-26T03:08:47;93402.09;;;13.53;55.45
15050;BME280;7622;42.724;23.250;2023-02-26T03:11:15;93419.19;;;13.55;56.12
15050;BME280;7622;42.724;23.250;2023-02-26T03:13:43;93403.75;;;13.60;55.76
15050;BME280;7622;42.724;23.250;2023-02-26T03:16:28;93405.78;;;13.65;55.14
15050;BME280;7622;42.724;23.250;2023-02-26T03:19:03;93401.31;;;13.59;55.04
15050;BME280;7622;42.724;23.250;2023-02-26T03:21:39;93401.16;;;13.60;54.85
15050;BME280;7622;42.724;23.250;2023-02-26T03:24:15;93399.78;;;13.71;54.57
15050;BME280;7622;42.724;23.250;2023-02-26T03:26:47;93396.16;;;13.65;54.79
15050;BME280;7622;42.724;23.250;2023-02-26T03:29:23;93394.72;;;13.63;54.61
15050;BME280;7622;42.724;23.250;2023-02-26T03:31:57;93396.94;;;13.66;54.98
15050;BME280;7622;42.724;23.250;2023-02-26T03:34:27;93390.56;;;13.68;54.44
15050;BME280;7622;42.724;23.250;2023-02-26T03:37:01;93389.16;;;13.72;54.32
15050;BME280;7622;42.724;23.250;2023-02-26T03:39:32;93390.94;;;13.65;54.70
15050;BME280;7622;42.724;23.250;2023-02-26T03:42:03;93388.13;;;13.67;54.71
15050;BME280;7622;42.724;23.250;2023-02-26T03:44:33;93385.09;;;13.63;55.05
15050;BME280;7622;42.724;23.250;2023-02-26T03:47:06;93385.72;;;13.65;54.92
15050;BME280;7622;42.724;23.250;2023-02-26T03:49:37;93390.56;;;13.68;54.97
15050;BME280;7622;42.724;23.250;2023-02-26T03:52:05;93381.88;;;13.61;55.45
15050;BME280;7622;42.724;23.250;2023-02-26T03:54:35;93331.28;;;13.21;55.83
15050;BME280;7622;42.724;23.250;2023-02-26T03:57:03;93399.59;;;13.72;55.82
15050;BME280;7622;42.724;23.250;2023-02-26T03:59:30;93395.16;;;13.66;56.24
15050;BME280;7622;42.724;23.250;2023-02-26T04:02:00;93392.06;;;13.56;56.65
15050;BME280;7622;42.724;23.250;2023-02-26T04:04:32;93381.88;;;13.61;56.54
15050;BME280;7622;42.724;23.250;2023-02-26T04:07:00;93390.84;;;13.52;57.29
15050;BME280;7622;42.724;23.250;2023-02-26T04:09:28;93381.25;;;13.59;57.09
15050;BME280;7622;42.724;23.250;2023-02-26T04:11:55;93390.50;;;13.55;56.80
15050;BME280;7622;42.724;23.250;2023-02-26T04:14:24;93384.25;;;13.56;56.87
15050;BME280;7622;42.724;23.250;2023-02-26T04:16:50;93389.66;;;13.48;56.89
15050;BME280;7622;42.724;23.250;2023-02-26T04:19:17;93363.56;;;13.48;56.91
15050;BME280;7622;42.724;23.250;2023-02-26T04:21:46;93369.63;;;13.55;56.85
15050;BME280;7622;42.724;23.250;2023-02-26T04:24:13;93362.16;;;13.52;56.77
15050;BME280;7622;42.724;23.250;2023-02-26T04:26:39;93298.38;;;13.14;57.21
15050;BME280;7622;42.724;23.250;2023-02-26T04:29:06;93355.47;;;13.43;56.85
15050;BME280;7622;42.724;23.250;2023-02-26T04:31:33;93343.47;;;13.49;57.29
15050;BME280;7622;42.724;23.250;2023-02-26T04:34:00;93345.47;;;13.47;57.06
15050;BME280;7622;42.724;23.250;2023-02-26T04:36:27;93343.69;;;13.47;56.93
15050;BME280;7622;42.724;23.250;2023-02-26T04:38:57;93349.50;;;13.49;56.84
15050;BME280;7622;42.724;23.250;2023-02-26T04:41:24;93339.06;;;13.49;55.98
15050;BME280;7622;42.724;23.250;2023-02-26T04:43:50;93340.69;;;13.57;55.56
15050;BME280;7622;42.724;23.250;2023-02-26T04:46:17;93326.25;;;13.54;55.67
15050;BME280;7622;42.724;23.250;2023-02-26T04:48:44;93331.84;;;13.51;55.62
15050;BME280;7622;42.724;23.250;2023-02-26T04:51:11;93336.72;;;13.61;55.56
15050;BME280;7622;42.724;23.250;2023-02-26T04:53:38;93324.69;;;13.60;55.61
15050;BME280;7622;42.724;23.250;2023-02-26T04:56:06;93314.44;;;13.58;54.72
15050;BME280;7622;42.724;23.250;2023-02-26T04:58:33;93336.69;;;13.54;54.93
15050;BME280;7622;42.724;23.250;2023-02-26T05:00:59;93313.81;;;13.56;55.26
15050;BME280;7622;42.724;23.250;2023-02-26T05:03:26;93311.81;;;13.58;55.38
15050;BME280;7622;42.724;23.250;2023-02-26T05:05:53;93318.19;;;13.49;55.62
15050;BME280;7622;42.724;23.250;2023-02-26T05:08:20;93300.97;;;13.48;55.82
15050;BME280;7622;42.724;23.250;2023-02-26T05:10:46;93300.19;;;13.54;55.74
15050;BME280;7622;42.724;23.250;2023-02-26T05:13:15;93285.31;;;13.48;55.43
15050;BME280;7622;42.724;23.250;2023-02-26T05:15:41;93289.75;;;13.54;54.89
15050;BME280;7622;42.724;23.250;2023-02-26T05:18:08;93273.28;;;13.54;54.52
15050;BME280;7622;42.724;23.250;2023-02-26T05:20:35;93277.28;;;13.56;54.54
15050;BME280;7622;42.724;23.250;2023-02-26T05:23:02;93271.69;;;13.59;54.04
15050;BME280;7622;42.724;23.250;2023-02-26T05:25:29;93295.78;;;13.61;53.68
15050;BME280;7622;42.724;23.250;2023-02-26T05:27:55;93271.72;;;13.66;53.52
15050;BME280;7622;42.724;23.250;2023-02-26T05:30:24;93286.38;;;13.67;53.66
15050;BME280;7622;42.724;23.250;2023-02-26T05:32:50;93259.69;;;13.71;53.36
15050;BME280;7622;42.724;23.250;2023-02-26T05:35:17;93261.88;;;13.61;53.26
15050;BME280;7622;42.724;23.250;2023-02-26T05:37:44;93244.03;;;13.71;52.99
15050;BME280;7622;42.724;23.250;2023-02-26T05:40:11;93268.13;;;13.80;52.70
15050;BME280;7622;42.724;23.250;2023-02-26T05:42:39;93289.22;;;13.85;52.60
15050;BME280;7622;42.724;23.250;2023-02-26T05:45:07;93255.72;;;13.89;51.94
15050;BME280;7622;42.724;23.250;2023-02-26T05:47:35;93268.34;;;13.92;52.05
15050;BME280;7622;42.724;23.250;2023-02-26T05:50:02;93271.38;;;13.89;51.85
15050;BME280;7622;42.724;23.250;2023-02-26T05:52:29;93252.50;;;13.93;51.64
15050;BME280;7622;42.724;23.250;2023-02-26T05:54:56;93279.00;;;13.97;51.26
15050;BME280;7622;42.724;23.250;2023-02-26T05:57:23;93269.97;;;13.93;51.24
15050;BME280;7622;42.724;23.250;2023-02-26T05:59:50;93268.97;;;13.94;51.02
15050;BME280;7622;42.724;23.250;2023-02-26T06:02:17;93244.88;;;14.05;50.42
15050;BME280;7622;42.724;23.250;2023-02-26T06:04:45;93256.56;;;14.09;49.94
15050;BME280;7622;42.724;23.250;2023-02-26T06:07:12;93262.97;;;14.19;49.63
15050;BME280;7622;42.724;23.250;2023-02-26T06:09:39;93260.56;;;14.18;49.76
15050;BME280;7622;42.724;23.250;2023-02-26T06:12:06;93267.81;;;14.36;49.16
15050;BME280;7622;42.724;23.250;2023-02-26T06:14:34;93284.72;;;14.46;48.25
15050;BME280;7622;42.724;23.250;2023-02-26T06:17:01;93246.09;;;14.75;46.83
15050;BME280;7622;42.724;23.250;2023-02-26T06:19:28;93253.38;;;14.73;47.24
15050;BME280;7622;42.724;23.250;2023-02-26T06:21:56;93254.94;;;14.80;46.63
15050;BME280;7622;42.724;23.250;2023-02-26T06:24:23;93251.31;;;14.88;47.02
15050;BME280;7622;42.724;23.250;2023-02-26T06:26:49;93248.91;;;14.80;46.66
15050;BME280;7622;42.724;23.250;2023-02-26T06:29:16;93232.03;;;14.82;46.77
15050;BME280;7622;42.724;23.250;2023-02-26T06:31:45;93278.19;;;15.21;46.34
15050;BME280;7622;42.724;23.250;2023-02-26T06:34:12;93278.63;;;15.18;46.38
15050;BME280;7622;42.724;23.250;2023-02-26T06:36:38;93291.69;;;15.18;45.83
15050;BME280;7622;42.724;23.250;2023-02-26T06:39:07;93258.13;;;15.02;45.88
15050;BME280;7622;42.724;23.250;2023-02-26T06:41:34;93288.47;;;15.16;45.46
15050;BME280;7622;42.724;23.250;2023-02-26T06:44:00;93288.66;;;15.21;45.31
15050;BME280;7622;42.724;23.250;2023-02-26T06:46:27;93273.75;;;15.28;44.97
15050;BME280;7622;42.724;23.250;2023-02-26T06:48:54;93247.97;;;15.32;45.04
15050;BME280;7622;42.724;23.250;2023-02-26T06:51:21;93251.19;;;15.41;44.78
15050;BME280;7622;42.724;23.250;2023-02-26T06:53:47;93277.72;;;15.44;44.26
15050;BME280;7622;42.724;23.250;2023-02-26T06:56:16;93253.78;;;15.54;44.28
15050;BME280;7622;42.724;23.250;2023-02-26T06:58:42;93249.53;;;15.53;44.34
15050;BME280;7622;42.724;23.250;2023-02-26T07:01:09;93273.44;;;15.69;44.14
15050;BME280;7622;42.724;23.250;2023-02-26T07:03:36;93260.47;;;15.81;43.60
15050;BME280;7622;42.724;23.250;2023-02-26T07:06:03;93269.94;;;15.82;43.48
15050;BME280;7622;42.724;23.250;2023-02-26T07:08:32;93261.50;;;15.80;43.23
15050;BME280;7622;42.724;23.250;2023-02-26T07:10:58;93257.81;;;15.88;43.41
15050;BME280;7622;42.724;23.250;2023-02-26T07:13:26;93261.50;;;15.80;43.07
15050;BME280;7622;42.724;23.250;2023-02-26T07:15:53;93286.47;;;15.83;43.56
15050;BME280;7622;42.724;23.250;2023-02-26T07:18:20;93300.06;;;15.98;43.54
15050;BME280;7622;42.724;23.250;2023-02-26T07:20:48;93285.22;;;15.85;43.63
15050;BME280;7622;42.724;23.250;2023-02-26T07:23:15;93251.63;;;15.82;43.71
15050;BME280;7622;42.724;23.250;2023-02-26T07:25:42;93301.66;;;15.99;43.52
15050;BME280;7622;42.724;23.250;2023-02-26T07:28:09;93284.16;;;16.31;43.74
15050;BME280;7622;42.724;23.250;2023-02-26T07:30:37;93289.16;;;16.07;42.87
15050;BME280;7622;42.724;23.250;2023-02-26T07:33:07;93282.91;;;16.08;43.87
15050;BME280;7622;42.724;23.250;2023-02-26T07:35:34;93279.03;;;16.18;43.69
15050;BME280;7622;42.724;23.250;2023-02-26T07:38:01;93257.97;;;16.31;43.26
15050;BME280;7622;42.724;23.250;2023-02-26T07:40:28;93258.72;;;16.38;43.37
15050;BME280;7622;42.724;23.250;2023-02-26T07:42:54;93285.03;;;16.25;43.72
15050;BME280;7622;42.724;23.250;2023-02-26T07:45:21;93274.31;;;16.26;43.56
15050;BME280;7622;42.724;23.250;2023-02-26T07:47:49;93227.13;;;16.26;43.11
15050;BME280;7622;42.724;23.250;2023-02-26T07:50:17;93250.50;;;16.03;43.57
15050;BME280;7622;42.724;23.250;2023-02-26T07:52:44;93266.53;;;16.13;43.91
15050;BME280;7622;42.724;23.250;2023-02-26T07:55:12;93279.84;;;16.11;43.76
15050;BME280;7622;42.724;23.250;2023-02-26T07:57:39;93281.38;;;16.26;43.53
15050;BME280;7622;42.724;23.250;2023-02-26T08:00:07;93276.97;;;16.20;43.84
15050;BME280;7622;42.724;23.250;2023-02-26T08:02:34;93272.69;;;16.32;43.69
15050;BME280;7622;42.724;23.250;2023-02-26T08:05:02;93255.06;;;16.39;43.71
15050;BME280;7622;42.724;23.250;2023-02-26T08:07:29;93252.44;;;16.39;43.43
15050;BME280;7622;42.724;23.250;2023-02-26T08:09:56;93274.16;;;16.46;43.05
15050;BME280;7622;42.724;23.250;2023-02-26T08:12:23;93250.91;;;16.31;43.33
15050;BME280;7622;42.724;23.250;2023-02-26T08:14:50;93278.22;;;16.42;43.02
15050;BME280;7622;42.724;23.250;2023-02-26T08:17:16;93275.00;;;16.40;42.94
15050;BME280;7622;42.724;23.250;2023-02-26T08:19:43;93277.03;;;16.44;42.58
15050;BME280;7622;42.724;23.250;2023-02-26T08:22:11;93310.28;;;16.44;42.76
15050;BME280;7622;42.724;23.250;2023-02-26T08:24:38;93267.16;;;16.40;42.76
15050;BME280;7622;42.724;23.250;2023-02-26T08:27:05;93280.59;;;16.50;42.98
15050;BME280;7622;42.724;23.250;2023-02-26T08:29:32;93305.41;;;16.79;42.66
15050;BME280;7622;42.724;23.250;2023-02-26T08:31:58;93292.41;;;16.66;42.54
15050;BME280;7622;42.724;23.250;2023-02-26T08:34:25;93280.25;;;16.71;42.60
15050;BME280;7622;42.724;23.250;2023-02-26T08:36:52;93281.88;;;16.72;42.33
15050;BME280;7622;42.724;23.250;2023-02-26T08:39:20;93297.69;;;16.59;42.17
15050;BME280;7622;42.724;23.250;2023-02-26T08:41:47;93294.97;;;16.72;42.20
15050;BME280;7622;42.724;23.250;2023-02-26T08:44:14;93310.41;;;16.87;41.95
15050;BME280;7622;42.724;23.250;2023-02-26T08:46:41;93288.78;;;17.10;41.81
15050;BME280;7622;42.724;23.250;2023-02-26T08:49:07;93290.03;;;17.25;41.65
15050;BME280;7622;42.724;23.250;2023-02-26T08:51:34;93303.91;;;17.32;41.96
15050;BME280;7622;42.724;23.250;2023-02-26T08:54:01;93290.13;;;17.37;41.54
15050;BME280;7622;42.724;23.250;2023-02-26T08:56:29;93321.47;;;17.32;41.28
15050;BME280;7622;42.724;23.250;2023-02-26T08:58:56;93306.19;;;17.04;41.07
15050;BME280;7622;42.724;23.250;2023-02-26T09:01:23;93292.47;;;17.27;41.09
15050;BME280;7622;42.724;23.250;2023-02-26T09:03:50;93314.03;;;17.29;40.79
15050;BME280;7622;42.724;23.250;2023-02-26T09:06:16;93304.25;;;17.18;41.35
15050;BME280;7622;42.724;23.250;2023-02-26T09:08:43;93312.06;;;17.24;41.36
15050;BME280;7622;42.724;23.250;2023-02-26T09:11:10;93307.47;;;17.38;41.33
15050;BME280;7622;42.724;23.250;2023-02-26T09:13:38;93315.50;;;17.43;41.21
15050;BME280;7622;42.724;23.250;2023-02-26T09:16:06;93307.72;;;17.73;41.31
15050;BME280;7622;42.724;23.250;2023-02-26T09:18:33;93289.97;;;17.87;40.59
15050;BME280;7622;42.724;23.250;2023-02-26T09:21:00;93321.31;;;18.18;40.17
15050;BME280;7622;42.724;23.250;2023-02-26T09:23:27;93310.53;;;18.38;39.50
15050;BME280;7622;42.724;23.250;2023-02-26T09:25:55;93309.31;;;18.52;39.12
15050;BME280;7622;42.724;23.250;2023-02-26T09:28:23;93307.44;;;18.71;38.51
15050;BME280;7622;42.724;23.250;2023-02-26T09:30:52;93319.41;;;19.08;37.90
15050;BME280;7622;42.724;23.250;2023-02-26T09:33:20;93291.44;;;19.31;37.32
15050;BME280;7622;42.724;23.250;2023-02-26T09:35:47;93300.28;;;19.13;37.36
15050;BME280;7622;42.724;23.250;2023-02-26T09:38:15;93338.06;;;19.42;37.02
15050;BME280;7622;42.724;23.250;2023-02-26T09:40:46;93301.75;;;19.20;37.06
15050;BME280;7622;42.724;23.250;2023-02-26T09:43:47;93317.56;;;19.20;37.42
15050;BME280;7622;42.724;23.250;2023-02-26T09:46:26;93327.38;;;19.37;37.13
15050;BME280;7622;42.724;23.250;2023-02-26T09:49:02;93323.06;;;19.42;37.42
15050;BME280;7622;42.724;23.250;2023-02-26T09:51:33;93315.94;;;19.31;37.23
15050;BME280;7622;42.724;23.250;2023-02-26T09:54:06;93316.03;;;19.36;37.00
15050;BME280;7622;42.724;23.250;2023-02-26T09:56:35;93338.84;;;19.19;37.26
15050;BME280;7622;42.724;23.250;2023-02-26T09:59:02;93338.03;;;19.18;37.57
15050;BME280;7622;42.724;23.250;2023-02-26T10:01:34;93341.47;;;19.65;37.47
15050;BME280;7622;42.724;23.250;2023-02-26T10:04:15;93311.59;;;19.13;37.69
15050;BME280;7622;42.724;23.250;2023-02-26T10:07:02;93308.28;;;19.53;37.76
15050;BME280;7622;42.724;23.250;2023-02-26T10:09:42;93304.56;;;19.89;37.41
15050;BME280;7622;42.724;23.250;2023-02-26T10:12:12;93316.63;;;19.73;37.36
15050;BME280;7622;42.724;23.250;2023-02-26T10:14:44;93282.63;;;19.37;38.46
15050;BME280;7622;42.724;23.250;2023-02-26T10:17:19;93293.94;;;19.72;37.62
15050;BME280;7622;42.724;23.250;2023-02-26T10:19:51;93326.28;;;19.56;38.14
15050;BME280;7622;42.724;23.250;2023-02-26T10:22:25;93318.94;;;19.58;37.95
15050;BME280;7622;42.724;23.250;2023-02-26T10:24:57;93316.97;;;19.65;38.10
15050;BME280;7622;42.724;23.250;2023-02-26T10:27:37;93300.97;;;19.55;38.52
15050;BME280;7622;42.724;23.250;2023-02-26T10:30:12;93272.00;;;19.20;38.46
15050;BME280;7622;42.724;23.250;2023-02-26T10:32:51;93292.81;;;19.45;38.36
15050;BME280;7622;42.724;23.250;2023-02-26T10:35:23;93304.03;;;19.52;38.37
15050;BME280;7622;42.724;23.250;2023-02-26T10:37:55;93265.91;;;19.54;38.42
15050;BME280;7622;42.724;23.250;2023-02-26T10:40:28;93270.13;;;19.67;38.56
15050;BME280;7622;42.724;23.250;2023-02-26T10:42:59;93256.41;;;19.30;38.66
15050;BME280;7622;42.724;23.250;2023-02-26T10:45:40;93274.66;;;19.08;39.05
15050;BME280;7622;42.724;23.250;2023-02-26T10:48:27;93294.06;;;18.96;39.52
15050;BME280;7622;42.724;23.250;2023-02-26T10:50:58;93303.19;;;18.70;39.97
15050;BME280;7622;42.724;23.250;2023-02-26T10:53:27;93259.41;;;19.10;39.74
15050;BME280;7622;42.724;23.250;2023-02-26T10:56:01;93254.81;;;18.71;40.36
15050;BME280;7622;42.724;23.250;2023-02-26T10:58:29;93278.56;;;18.53;40.47
15050;BME280;7622;42.724;23.250;2023-02-26T11:00:56;93249.91;;;18.33;40.80
15050;BME280;7622;42.724;23.250;2023-02-26T11:03:30;93282.22;;;17.92;41.47
15050;BME280;7622;42.724;23.250;2023-02-26T11:05:58;93280.19;;;17.94;41.44
15050;BME280;7622;42.724;23.250;2023-02-26T11:08:26;93258.19;;;17.77;42.03
15050;BME280;7622;42.724;23.250;2023-02-26T11:10:55;93257.00;;;17.91;41.85
15050;BME280;7622;42.724;23.250;2023-02-26T11:13:24;93283.66;;;17.76;41.77
15050;BME280;7622;42.724;23.250;2023-02-26T11:15:54;93263.16;;;17.66;41.70
15050;BME280;7622;42.724;23.250;2023-02-26T11:18:24;93256.28;;;17.65;42.16
15050;BME280;7622;42.724;23.250;2023-02-26T11:20:55;93262.72;;;17.69;42.22
15050;BME280;7622;42.724;23.250;2023-02-26T11:23:25;93251.84;;;17.48;42.76
15050;BME280;7622;42.724;23.250;2023-02-26T11:25:57;93232.09;;;17.27;44.67
15050;BME280;7622;42.724;23.250;2023-02-26T11:28:30;93276.44;;;17.35;43.72
15050;BME280;7622;42.724;23.250;2023-02-26T11:31:00;93273.28;;;17.26;43.77
15050;BME280;7622;42.724;23.250;2023-02-26T11:33:33;93254.84;;;17.15;44.41
15050;BME280;7622;42.724;23.250;2023-02-26T11:36:08;93258.16;;;17.04;43.97
15050;BME280;7622;42.724;23.250;2023-02-26T11:38:36;93265.03;;;17.05;44.19
15050;BME280;7622;42.724;23.250;2023-02-26T11:41:04;93246.34;;;16.94;44.96
15050;BME280;7622;42.724;23.250;2023-02-26T11:43:36;93272.47;;;17.08;44.94
15050;BME280;7622;42.724;23.250;2023-02-26T11:46:06;93267.63;;;16.86;45.04
15050;BME280;7622;42.724;23.250;2023-02-26T11:48:39;93279.13;;;16.85;45.80
15050;BME280;7622;42.724;23.250;2023-02-26T11:51:13;93293.84;;;16.86;46.22
15050;BME280;7622;42.724;23.250;2023-02-26T11:53:43;93280.81;;;16.98;45.61
15050;BME280;7622;42.724;23.250;2023-02-26T11:56:24;93294.00;;;16.91;45.44
15050;BME280;7622;42.724;23.250;2023-02-26T11:58:53;93312.63;;;16.83;46.63
15050;BME280;7622;42.724;23.250;2023-02-26T12:01:26;93311.47;;;16.79;46.85
15050;BME280;7622;42.724;23.250;2023-02-26T12:03:57;93335.59;;;16.63;47.59
15050;BME280;7622;42.724;23.250;2023-02-26T12:06:26;93356.97;;;16.60;48.81
15050;BME280;7622;42.724;23.250;2023-02-26T12:08:53;93371.88;;;16.66;48.96
15050;BME280;7622;42.724;23.250;2023-02-26T12:11:43;93411.06;;;16.48;49.60
15050;BME280;7622;42.724;23.250;2023-02-26T12:17:19;93400.44;;;16.36;50.35
15050;BME280;7622;42.724;23.250;2023-02-26T12:19:52;93405.66;;;16.43;50.45
15050;BME280;7622;42.724;23.250;2023-02-26T12:22:47;93417.06;;;16.55;50.02
15050;BME280;7622;42.724;23.250;2023-02-26T12:25:46;93404.72;;;16.31;48.50
15050;BME280;7622;42.724;23.250;2023-02-26T12:28:36;93395.00;;;16.38;47.99
15050;BME280;7622;42.724;23.250;2023-02-26T12:31:20;93399.72;;;16.54;48.38
15050;BME280;7622;42.724;23.250;2023-02-26T12:33:59;93431.19;;;16.54;47.37
15050;BME280;7622;42.724;23.250;2023-02-26T12:36:41;93409.88;;;16.44;47.30
15050;BME280;7622;42.724;23.250;2023-02-26T12:39:31;93403.00;;;16.49;47.06
15050;BME280;7622;42.724;23.250;2023-02-26T12:42:12;93425.41;;;16.83;46.94
15050;BME280;7622;42.724;23.250;2023-02-26T12:45:09;93424.56;;;16.89;46.31
15050;BME280;7622;42.724;23.250;2023-02-26T12:47:49;93431.91;;;16.74;46.25
15050;BME280;7622;42.724;23.250;2023-02-26T12:50:29;93465.59;;;17.09;45.89
15050;BME280;7622;42.724;23.250;2023-02-26T12:53:11;93440.09;;;17.16;45.55
15050;BME280;7622;42.724;23.250;2023-02-26T12:55:47;93451.13;;;17.00;45.59
15050;BME280;7622;42.724;23.250;2023-02-26T12:58:46;93439.31;;;17.15;45.60
15050;BME280;7622;42.724;23.250;2023-02-26T13:10:02;93439.88;;;16.92;45.82
15050;BME280;7622;42.724;23.250;2023-02-26T13:12:41;93471.63;;;17.09;46.21
15050;BME280;7622;42.724;23.250;2023-02-26T13:15:28;93454.81;;;16.92;47.21
15050;BME280;7622;42.724;23.250;2023-02-26T13:18:02;93452.53;;;16.71;48.11
15050;BME280;7622;42.724;23.250;2023-02-26T13:20:33;93465.78;;;16.76;48.59
15050;BME280;7622;42.724;23.250;2023-02-26T13:23:09;93462.19;;;16.70;49.02
15050;BME280;7622;42.724;23.250;2023-02-26T13:25:40;93424.28;;;16.60;49.03
15050;BME280;7622;42.724;23.250;2023-02-26T13:28:19;93466.13;;;16.92;48.60
15050;BME280;7622;42.724;23.250;2023-02-26T13:30:50;93462.56;;;16.74;49.14